Smearney, Arkansas
Current Conditions -  °F | °C
As of 8:53 PM on Sunday 23 Nov 2014 (Local Time) from KLLQ Reporting Station
Clear Clear  
Wind Chill: 63°   Ceiling: Unl
Heat Index: 63°   Visibility: 10mi
Dew Point: 58°   Wind: 14mph
Humidity: 84%   Direction: 190°S
Pressure: 29.48"   Gusts: 25mph
Location:  33.37°N, 92.1129°W
Report Text: KLLQ 240253Z AUTO 19012G22KT 10SM CLR 17/14 A2948 RMK AO2 SLP980 T01720144 51013
Loading
Personal Weather Stations






























Interactive Weather Map New forecast layout! Learn more

10-Day Weather Forecast

Advertisements
Track Severe Weather on mobile